createdAt,value
2023-05-22T00:01:59.504Z,4.05
2023-05-22T00:04:30.447Z,3.80
2023-05-22T00:07:01.501Z,3.45
2023-05-22T00:09:32.466Z,3.80
2023-05-22T00:12:03.856Z,3.45
2023-05-22T00:14:34.746Z,3.83
2023-05-22T00:17:10.581Z,3.45
2023-05-22T00:19:41.764Z,3.60
2023-05-22T00:22:13.283Z,3.88
2023-05-22T00:24:44.088Z,3.92
2023-05-22T00:27:14.903Z,3.50
2023-05-22T00:29:45.729Z,3.63
2023-05-22T00:32:19.226Z,3.60
2023-05-22T00:34:50.715Z,4.05
2023-05-22T00:37:22.812Z,3.50
2023-05-22T00:39:54.129Z,4.22
2023-05-22T00:42:25.839Z,3.90
2023-05-22T00:44:56.657Z,3.45
2023-05-22T00:47:30.358Z,3.78
2023-05-22T00:50:01.422Z,4.20
2023-05-22T00:52:32.442Z,3.40
2023-05-22T00:55:04.361Z,3.40
2023-05-22T00:57:36.680Z,3.50
2023-05-22T01:00:11.108Z,3.67
2023-05-22T01:02:44.962Z,3.50
2023-05-22T01:05:18.497Z,3.58
2023-05-22T01:07:49.818Z,3.40
2023-05-22T01:10:21.224Z,3.28
2023-05-22T01:13:00.140Z,3.47
2023-05-22T01:15:39.924Z,3.72
2023-05-22T01:18:20.040Z,3.53
2023-05-22T01:20:58.436Z,3.60
2023-05-22T01:23:54.395Z,3.78
2023-05-22T01:26:46.836Z,4.05
2023-05-22T01:29:39.694Z,4.15
2023-05-22T01:32:16.537Z,3.38
2023-05-22T01:34:49.978Z,3.95
2023-05-22T01:37:23.880Z,4.18
2023-05-22T01:39:59.763Z,3.97
2023-05-22T01:42:31.413Z,4.30
2023-05-22T01:45:02.362Z,3.97
2023-05-22T01:47:36.084Z,3.90
2023-05-22T01:50:08.103Z,4.28
2023-05-22T01:52:48.617Z,4.10
2023-05-22T01:55:23.438Z,3.47
2023-05-22T01:58:03.246Z,3.72
2023-05-22T02:00:34.609Z,3.80
2023-05-22T02:03:12.383Z,3.70
2023-05-22T02:05:44.197Z,3.78
2023-05-22T02:08:16.669Z,4.18
2023-05-22T02:10:49.578Z,3.45
2023-05-22T02:13:20.753Z,3.60
2023-05-22T02:15:51.961Z,3.72
2023-05-22T02:18:31.388Z,4.03
2023-05-22T02:21:03.587Z,3.83
2023-05-22T02:23:36.211Z,3.63
2023-05-22T02:26:07.881Z,3.85
2023-05-22T02:28:38.704Z,5.68
2023-05-22T02:31:10.664Z,3.90
2023-05-22T02:33:44.221Z,4.50
2023-05-22T02:36:15.157Z,4.20
2023-05-22T02:38:46.053Z,4.00
2023-05-22T02:41:17.492Z,4.35
2023-05-22T02:43:48.738Z,4.25
2023-05-22T02:46:19.765Z,4.10
2023-05-22T02:48:53.340Z,4.13
2023-05-22T02:51:24.205Z,3.95
2023-05-22T02:53:55.965Z,3.95
2023-05-22T02:56:29.214Z,3.25
2023-05-22T02:59:00.209Z,3.90
2023-05-22T03:01:31.149Z,4.00
2023-05-22T03:04:04.703Z,5.07
2023-05-22T03:06:37.461Z,4.70
2023-05-22T03:09:09.052Z,4.07
2023-05-22T03:11:39.959Z,4.18
2023-05-22T03:14:10.914Z,4.65
2023-05-22T03:16:41.926Z,4.40
2023-05-22T03:19:17.291Z,3.75
2023-05-22T03:21:50.343Z,4.43
2023-05-22T03:24:21.352Z,4.45
2023-05-22T03:26:52.222Z,4.15
2023-05-22T03:29:31.655Z,4.22
2023-05-22T03:32:03.858Z,4.03
2023-05-22T03:34:37.436Z,4.22
2023-05-22T03:37:13.107Z,4.15
2023-05-22T03:39:44.202Z,4.88
2023-05-22T03:42:23.948Z,4.45
2023-05-22T03:44:54.960Z,4.55
2023-05-22T03:47:25.860Z,3.80
2023-05-22T03:49:59.405Z,4.25
2023-05-22T03:52:31.831Z,4.80
2023-05-22T03:55:02.804Z,4.35
2023-05-22T03:57:33.649Z,4.40
2023-05-22T04:00:10.056Z,4.20
2023-05-22T04:02:45.518Z,4.65
2023-05-22T04:05:20.480Z,4.38
2023-05-22T04:07:51.283Z,4.50
2023-05-22T04:10:23.833Z,4.53
2023-05-22T04:12:54.802Z,4.20
2023-05-22T04:15:25.699Z,5.05
2023-05-22T04:17:56.545Z,4.90
2023-05-22T04:20:30.246Z,5.30
2023-05-22T04:23:01.428Z,5.00
2023-05-22T04:25:34.624Z,5.40
2023-05-22T04:28:06.181Z,5.57
2023-05-22T04:30:38.054Z,5.20
2023-05-22T04:33:09.221Z,5.70
2023-05-22T04:35:44.593Z,6.03
2023-05-22T04:38:16.461Z,5.45
2023-05-22T04:40:48.078Z,5.95
2023-05-22T04:43:19.041Z,5.68
2023-05-22T04:45:49.826Z,5.88
2023-05-22T04:48:21.535Z,5.88
2023-05-22T04:50:55.647Z,5.70
2023-05-22T04:53:27.819Z,5.72
2023-05-22T04:55:58.693Z,5.85
2023-05-22T04:58:30.124Z,6.07
2023-05-22T05:01:03.623Z,5.50
2023-05-22T05:03:34.082Z,5.50
2023-05-22T05:06:08.541Z,5.45
2023-05-22T05:08:39.000Z,6.78
2023-05-22T05:11:09.497Z,6.15
2023-05-22T05:13:39.921Z,5.82
2023-05-22T05:16:10.952Z,5.45
2023-05-22T05:18:41.625Z,5.93
2023-05-22T05:21:15.369Z,5.13
2023-05-22T05:23:46.668Z,5.93
2023-05-22T05:26:17.754Z,6.25
2023-05-22T05:28:49.582Z,5.00
2023-05-22T05:31:20.871Z,4.95
2023-05-22T05:34:02.869Z,7.10
2023-05-22T05:36:57.486Z,5.78
2023-05-22T05:39:29.212Z,5.55
2023-05-22T05:42:01.190Z,5.78
2023-05-22T05:44:31.612Z,5.45
2023-05-22T05:47:02.866Z,5.72
2023-05-22T05:49:35.639Z,5.47
2023-05-22T05:52:10.104Z,5.03
2023-05-22T05:54:46.724Z,5.32
2023-05-22T05:57:19.805Z,5.50
2023-05-22T05:59:50.627Z,5.47
2023-05-22T06:02:40.620Z,4.88
2023-05-22T06:05:20.519Z,5.72
2023-05-22T06:07:58.433Z,5.15
2023-05-22T06:10:28.928Z,4.93
2023-05-22T06:13:04.274Z,4.40
2023-05-22T06:15:35.448Z,4.70
2023-05-22T06:18:06.119Z,4.22
2023-05-22T06:20:37.042Z,4.47
2023-05-22T06:23:11.236Z,4.97
2023-05-22T06:25:42.049Z,4.05
2023-05-22T06:28:12.547Z,4.35
2023-05-22T06:30:42.959Z,4.28
2023-05-22T06:33:17.573Z,4.13
2023-05-22T06:35:49.340Z,4.07
2023-05-22T06:38:22.966Z,3.67
2023-05-22T06:40:53.338Z,2.22
2023-05-22T06:43:27.194Z,3.70
2023-05-22T06:46:02.157Z,3.63
2023-05-22T06:48:52.882Z,4.30
2023-05-22T06:51:29.619Z,3.80
2023-05-22T06:54:12.493Z,3.97
2023-05-22T06:56:44.091Z,3.58
2023-05-22T06:59:19.313Z,3.88
2023-05-22T07:02:08.753Z,3.97
2023-05-22T07:04:57.832Z,4.35
2023-05-22T07:07:36.247Z,3.75
2023-05-22T07:10:10.962Z,3.60
2023-05-22T07:12:41.484Z,3.72
2023-05-22T07:15:14.860Z,3.83
2023-05-22T07:17:51.352Z,3.65
2023-05-22T07:20:22.036Z,3.67
2023-05-22T07:23:05.286Z,4.20
2023-05-22T07:25:38.352Z,3.38
2023-05-22T07:28:09.651Z,4.07
2023-05-22T07:30:49.669Z,4.30
2023-05-22T07:33:20.228Z,3.78
2023-05-22T07:35:52.116Z,3.60
2023-05-22T07:38:23.036Z,3.85
2023-05-22T07:41:04.960Z,4.28
2023-05-22T07:43:37.107Z,3.90
2023-05-22T07:46:09.683Z,3.20
2023-05-22T07:48:48.704Z,3.55
2023-05-22T07:51:20.120Z,3.10
2023-05-22T07:53:53.360Z,4.43
2023-05-22T07:56:27.548Z,4.47
2023-05-22T07:58:58.906Z,3.60
2023-05-22T08:01:29.317Z,3.40
2023-05-22T08:03:59.815Z,4.05
2023-05-22T08:06:31.195Z,4.00
2023-05-22T08:09:02.760Z,4.15
2023-05-22T08:11:39.666Z,3.28
2023-05-22T08:14:10.421Z,4.40
2023-05-22T08:16:41.040Z,3.97
2023-05-22T08:19:12.017Z,3.75
2023-05-22T08:21:42.411Z,4.45
2023-05-22T08:24:12.945Z,3.38
2023-05-22T08:26:46.043Z,4.88
2023-05-22T08:29:16.390Z,4.93
2023-05-22T08:31:46.842Z,4.30
2023-05-22T08:34:17.240Z,4.57
2023-05-22T08:36:47.611Z,4.70
2023-05-22T08:39:19.374Z,4.80
2023-05-22T08:41:52.451Z,3.92
2023-05-22T08:44:22.910Z,4.00
2023-05-22T08:46:56.785Z,4.68
2023-05-22T08:49:27.878Z,3.90
2023-05-22T08:52:09.618Z,3.88
2023-05-22T08:54:43.912Z,4.50
2023-05-22T08:57:16.972Z,4.35
2023-05-22T08:59:48.227Z,4.35
2023-05-22T09:02:20.340Z,3.58
2023-05-22T09:04:50.795Z,4.25
2023-05-22T09:07:22.373Z,4.30
2023-05-22T09:09:53.064Z,4.20
2023-05-22T09:12:26.225Z,3.38
2023-05-22T09:14:58.942Z,4.15
2023-05-22T09:17:30.261Z,4.13
2023-05-22T09:20:04.946Z,4.45
2023-05-22T09:22:40.873Z,5.00
2023-05-22T09:25:12.178Z,4.68
2023-05-22T09:27:48.716Z,4.30
2023-05-22T09:30:20.347Z,3.60
2023-05-22T09:32:52.267Z,3.97
2023-05-22T09:35:23.046Z,3.95
2023-05-22T09:37:54.000Z,3.88
2023-05-22T09:40:25.400Z,3.90
2023-05-22T09:42:58.424Z,3.85
2023-05-22T09:45:31.055Z,4.00
2023-05-22T09:48:01.486Z,3.30
2023-05-22T09:50:31.960Z,4.00
2023-05-22T09:53:05.997Z,4.57
2023-05-22T09:55:37.800Z,4.40
2023-05-22T09:58:13.165Z,3.72
2023-05-22T10:00:44.670Z,4.88
2023-05-22T10:03:16.194Z,5.10
2023-05-22T10:05:51.926Z,4.65
2023-05-22T10:08:27.759Z,4.43
2023-05-22T10:10:58.802Z,4.38
2023-05-22T10:13:33.055Z,4.78
2023-05-22T10:16:04.926Z,4.97
2023-05-22T10:18:35.909Z,4.55
2023-05-22T10:21:06.952Z,4.43
2023-05-22T10:23:38.196Z,3.95
2023-05-22T10:26:09.648Z,6.25
2023-05-22T10:28:47.261Z,4.97
2023-05-22T10:31:27.345Z,4.40
2023-05-22T10:34:31.500Z,4.25
2023-05-22T10:37:21.477Z,5.00
2023-05-22T10:40:02.061Z,4.38
2023-05-22T10:42:34.175Z,4.15
2023-05-22T10:45:10.154Z,4.90
2023-05-22T10:47:40.849Z,5.07
2023-05-22T10:50:13.269Z,5.05
2023-05-22T10:52:43.700Z,4.15
2023-05-22T10:55:15.089Z,4.88
2023-05-22T10:57:45.459Z,4.50
2023-05-22T11:00:21.343Z,4.78
2023-05-22T11:03:17.659Z,4.75
2023-05-22T11:05:56.210Z,4.30
2023-05-22T11:08:42.908Z,4.80
2023-05-22T11:11:17.120Z,5.28
2023-05-22T11:13:54.378Z,4.30
2023-05-22T11:16:27.833Z,5.22
2023-05-22T11:19:21.288Z,5.10
2023-05-22T11:21:53.674Z,4.53
2023-05-22T11:24:24.428Z,4.57
2023-05-22T11:27:12.999Z,4.75
2023-05-22T11:29:46.521Z,4.72
2023-05-22T11:32:21.172Z,3.72
2023-05-22T11:34:52.324Z,4.25
2023-05-22T11:37:24.074Z,4.35
2023-05-22T11:39:58.472Z,5.03
2023-05-22T11:42:28.939Z,4.65
2023-05-22T11:44:59.442Z,4.22
2023-05-22T11:47:33.117Z,5.28
2023-05-22T11:50:04.007Z,5.85
2023-05-22T11:52:35.590Z,3.90
2023-05-22T11:55:08.384Z,4.30
2023-05-22T11:57:38.838Z,4.55
2023-05-22T12:00:11.183Z,5.28
2023-05-22T12:02:50.813Z,5.32
2023-05-22T12:05:24.101Z,5.43
2023-05-22T12:07:54.687Z,4.57
2023-05-22T12:10:25.217Z,4.78
2023-05-22T12:12:55.504Z,4.82
2023-05-22T12:15:27.835Z,5.32
2023-05-22T12:18:01.340Z,4.70
2023-05-22T12:20:33.468Z,4.53
2023-05-22T12:23:03.877Z,5.03
2023-05-22T12:25:38.686Z,5.38
2023-05-22T12:28:10.215Z,5.25
2023-05-22T12:30:44.523Z,5.00
2023-05-22T12:33:20.702Z,3.90
2023-05-22T12:35:54.611Z,6.28
2023-05-22T12:38:25.382Z,4.13
2023-05-22T12:40:56.437Z,5.63
2023-05-22T12:43:28.002Z,6.53
2023-05-22T12:45:59.792Z,4.70
2023-05-22T12:48:34.798Z,4.78
2023-05-22T12:51:05.162Z,5.88
2023-05-22T12:53:36.063Z,4.60
2023-05-22T12:56:06.786Z,5.15
2023-05-22T12:58:37.157Z,5.45
2023-05-22T13:01:07.890Z,5.25
2023-05-22T13:03:40.912Z,5.22
2023-05-22T13:06:12.466Z,5.35
2023-05-22T13:08:43.024Z,4.70
2023-05-22T13:12:27.446Z,4.18
2023-05-22T13:14:58.048Z,4.10
2023-05-22T13:17:29.033Z,4.55
2023-05-22T13:19:59.977Z,4.95
2023-05-22T13:22:30.375Z,5.10
2023-05-22T13:25:00.823Z,3.75
2023-05-22T13:27:34.178Z,4.50
2023-05-22T13:30:04.717Z,4.68
2023-05-22T13:32:36.696Z,5.30
2023-05-22T13:35:07.836Z,3.90
2023-05-22T13:37:38.204Z,5.20
2023-05-22T13:40:10.252Z,4.38
2023-05-22T13:42:43.279Z,5.40
2023-05-22T13:45:14.762Z,5.22
2023-05-22T13:47:45.160Z,5.70
2023-05-22T13:50:15.689Z,4.15
2023-05-22T13:53:13.489Z,5.38
2023-05-22T13:56:02.603Z,4.95
2023-05-22T13:58:35.849Z,4.35
2023-05-22T14:01:06.314Z,3.78
2023-05-22T14:03:37.296Z,4.18
2023-05-22T14:06:08.439Z,5.30
2023-05-22T14:08:38.900Z,4.65
2023-05-22T14:11:09.496Z,3.88
2023-05-22T14:13:44.741Z,4.78
2023-05-22T14:16:15.184Z,4.97
2023-05-22T14:18:45.478Z,4.18
2023-05-22T14:21:16.135Z,4.90
2023-05-22T14:23:46.534Z,4.07
2023-05-22T14:26:16.986Z,5.20
2023-05-22T14:28:49.995Z,3.85
2023-05-22T14:31:20.769Z,4.80
2023-05-22T14:33:51.189Z,4.88
2023-05-22T14:36:21.645Z,4.53
2023-05-22T14:38:52.194Z,4.28
2023-05-22T14:41:22.500Z,4.78
2023-05-22T14:43:55.454Z,3.78
2023-05-22T14:46:25.831Z,3.92
2023-05-22T14:48:56.245Z,3.72
2023-05-22T14:51:26.853Z,3.50
2023-05-22T14:53:57.351Z,4.05
2023-05-22T14:56:27.758Z,4.15
2023-05-22T14:59:01.135Z,3.55
2023-05-22T15:01:31.635Z,4.22
2023-05-22T15:04:02.097Z,4.07
2023-05-22T15:06:32.523Z,3.75
2023-05-22T15:09:02.915Z,3.95
2023-05-22T15:11:33.330Z,4.30
2023-05-22T15:14:06.366Z,4.40
2023-05-22T15:16:36.723Z,3.75
2023-05-22T15:19:07.219Z,4.60
2023-05-22T15:21:37.773Z,3.80
2023-05-22T15:24:08.425Z,4.30
2023-05-22T15:26:38.737Z,4.28
2023-05-22T15:29:11.810Z,3.58
2023-05-22T15:31:42.865Z,4.38
2023-05-22T15:34:13.444Z,3.40
2023-05-22T15:36:44.076Z,3.65
2023-05-22T15:39:14.444Z,3.42
2023-05-22T15:41:51.495Z,3.65
2023-05-22T15:44:27.879Z,4.13
2023-05-22T15:46:58.995Z,3.92
2023-05-22T15:49:31.220Z,4.30
2023-05-22T15:52:02.116Z,3.85
2023-05-22T15:54:32.499Z,3.75
2023-05-22T15:57:02.903Z,3.38
2023-05-22T15:59:36.262Z,3.78
2023-05-22T16:02:07.011Z,3.88
2023-05-22T16:04:37.376Z,3.97
2023-05-22T16:07:08.118Z,4.18
2023-05-22T16:09:38.507Z,3.25
2023-05-22T16:12:10.668Z,4.20
2023-05-22T16:14:43.641Z,3.47
2023-05-22T16:17:34.669Z,4.47
2023-05-22T16:20:05.404Z,3.67
2023-05-22T16:22:47.378Z,4.70
2023-05-22T16:25:19.566Z,5.07
2023-05-22T16:27:50.052Z,4.18
2023-05-22T16:30:23.322Z,4.45
2023-05-22T16:32:53.676Z,4.47
2023-05-22T16:35:24.180Z,4.15
2023-05-22T16:37:58.086Z,4.47
2023-05-22T16:40:28.456Z,5.07
2023-05-22T16:42:58.843Z,4.18
2023-05-22T16:45:32.007Z,3.45
2023-05-22T16:48:02.400Z,4.65
2023-05-22T16:50:32.990Z,6.07
2023-05-22T16:53:03.397Z,5.65
2023-05-22T16:55:33.991Z,5.35
2023-05-22T16:58:04.348Z,5.10
2023-05-22T17:00:37.418Z,5.38
2023-05-22T17:03:08.971Z,5.05
2023-05-22T17:05:40.217Z,4.72
2023-05-22T17:08:10.832Z,6.15
2023-05-22T17:10:41.824Z,6.28
2023-05-22T17:13:19.793Z,6.25
2023-05-22T17:15:53.889Z,5.30
2023-05-22T17:18:24.502Z,5.88
2023-05-22T17:20:57.029Z,4.75
2023-05-22T17:23:27.548Z,5.00
2023-05-22T17:25:57.888Z,4.97
2023-05-22T17:28:28.260Z,5.63
2023-05-22T17:31:01.239Z,4.63
2023-05-22T17:33:32.082Z,6.05
2023-05-22T17:36:03.058Z,5.18
2023-05-22T17:38:33.628Z,4.43
2023-05-22T17:41:04.171Z,5.55
2023-05-22T17:43:35.361Z,5.30
2023-05-22T17:46:08.886Z,5.53
2023-05-22T17:48:41.104Z,5.28
2023-05-22T17:51:12.462Z,5.45
2023-05-22T17:53:42.866Z,5.68
2023-05-22T17:56:13.434Z,4.32
2023-05-22T17:58:43.886Z,5.60
2023-05-22T18:01:17.392Z,6.28
2023-05-22T18:03:49.534Z,5.47
2023-05-22T18:06:21.801Z,4.97
2023-05-22T18:08:54.296Z,5.05
2023-05-22T18:11:26.290Z,5.10
2023-05-22T18:13:57.269Z,5.47
2023-05-22T18:16:30.356Z,5.53
2023-05-22T18:19:01.080Z,5.53
2023-05-22T18:21:32.367Z,5.30
2023-05-22T18:24:02.770Z,5.60
2023-05-22T18:26:33.210Z,5.70
2023-05-22T18:29:03.713Z,5.05
2023-05-22T18:31:37.506Z,5.32
2023-05-22T18:34:07.974Z,5.38
2023-05-22T18:36:41.484Z,5.40
2023-05-22T18:39:11.981Z,5.07
2023-05-22T18:41:45.709Z,6.00
2023-05-22T18:44:16.064Z,5.28
2023-05-22T18:46:49.561Z,5.80
2023-05-22T18:49:20.546Z,5.88
2023-05-22T18:51:51.756Z,4.93
2023-05-22T18:54:22.667Z,5.75
2023-05-22T18:56:54.090Z,5.60
2023-05-22T18:59:24.918Z,6.28
2023-05-22T19:01:58.494Z,6.25
2023-05-22T19:04:29.472Z,6.45
2023-05-22T19:07:00.700Z,5.68
2023-05-22T19:09:31.672Z,5.97
2023-05-22T19:12:02.591Z,6.40
2023-05-22T19:14:33.535Z,6.50
2023-05-22T19:17:07.297Z,6.68
2023-05-22T19:19:38.490Z,6.72
2023-05-22T19:22:09.441Z,6.88
2023-05-22T19:24:40.313Z,7.22
2023-05-22T19:27:11.360Z,7.63
2023-05-22T19:29:42.217Z,8.20
2023-05-22T19:32:16.248Z,8.35
2023-05-22T19:34:47.822Z,9.05
2023-05-22T19:37:18.886Z,9.80
2023-05-22T19:39:49.889Z,9.32
2023-05-22T19:42:20.868Z,10.27
2023-05-22T19:44:51.770Z,10.02
2023-05-22T19:47:25.298Z,10.00
2023-05-22T19:49:56.218Z,9.38
2023-05-22T19:52:27.147Z,10.45
2023-05-22T19:54:58.664Z,10.15
2023-05-22T19:57:33.771Z,10.48
2023-05-22T20:00:11.428Z,11.35
2023-05-22T20:02:45.207Z,11.30
2023-05-22T20:05:16.097Z,12.05
2023-05-22T20:07:47.344Z,10.98
2023-05-22T20:10:18.637Z,11.48
2023-05-22T20:12:49.625Z,11.65
2023-05-22T20:15:20.525Z,11.27
2023-05-22T20:17:55.428Z,10.45
2023-05-22T20:20:26.899Z,9.65
2023-05-22T20:23:01.090Z,10.10
2023-05-22T20:25:32.123Z,10.40
2023-05-22T20:28:06.950Z,10.25
2023-05-22T20:30:37.885Z,9.60
2023-05-22T20:33:12.177Z,10.27
2023-05-22T20:35:43.825Z,9.60
2023-05-22T20:38:15.021Z,10.10
2023-05-22T20:40:46.817Z,9.68
2023-05-22T20:43:19.299Z,10.50
2023-05-22T20:45:50.686Z,10.13
2023-05-22T20:48:24.338Z,9.20
2023-05-22T20:50:55.246Z,9.48
2023-05-22T20:53:26.391Z,8.90
2023-05-22T20:56:02.194Z,9.40
2023-05-22T20:58:33.194Z,9.23
2023-05-22T21:01:04.652Z,9.32
2023-05-22T21:03:38.370Z,9.25
2023-05-22T21:06:09.806Z,8.13
2023-05-22T21:08:40.687Z,9.50
2023-05-22T21:11:11.547Z,8.90
2023-05-22T21:13:42.452Z,9.10
2023-05-22T21:16:13.467Z,9.48
2023-05-22T21:18:46.940Z,9.18
2023-05-22T21:21:20.446Z,9.20
2023-05-22T21:23:51.727Z,8.68
2023-05-22T21:26:23.301Z,8.70
2023-05-22T21:28:54.896Z,8.60
2023-05-22T21:31:25.832Z,9.82
2023-05-22T21:33:59.418Z,8.25
2023-05-22T21:36:30.249Z,8.57
2023-05-22T21:39:01.410Z,8.55
2023-05-22T21:41:32.500Z,8.88
2023-05-22T21:44:03.614Z,8.90
2023-05-22T21:46:34.801Z,8.38
2023-05-22T21:49:09.888Z,8.23
2023-05-22T21:51:41.119Z,8.15
2023-05-22T21:54:12.171Z,7.70
2023-05-22T21:56:43.037Z,8.00
2023-05-22T21:59:14.718Z,7.90
2023-05-22T22:01:45.926Z,8.50
2023-05-22T22:04:19.508Z,8.43
2023-05-22T22:06:50.450Z,7.88
2023-05-22T22:09:21.334Z,7.85
2023-05-22T22:11:52.907Z,7.63
2023-05-22T22:14:23.697Z,8.35
2023-05-22T22:16:55.187Z,8.35
2023-05-22T22:19:29.275Z,7.65
2023-05-22T22:22:00.513Z,8.48
2023-05-22T22:24:31.413Z,8.40
2023-05-22T22:27:02.616Z,7.93
2023-05-22T22:29:33.497Z,8.25
2023-05-22T22:32:04.569Z,7.97
2023-05-22T22:34:38.163Z,7.80
2023-05-22T22:37:09.900Z,8.45
2023-05-22T22:39:41.180Z,8.05
2023-05-22T22:42:12.221Z,9.10
2023-05-22T22:44:43.124Z,7.97
2023-05-22T22:47:13.973Z,7.60
2023-05-22T22:49:47.455Z,8.15
2023-05-22T22:52:18.429Z,8.45
2023-05-22T22:54:49.370Z,8.15
2023-05-22T22:57:20.298Z,7.95
2023-05-22T22:59:51.743Z,8.20
2023-05-22T23:02:22.632Z,8.23
2023-05-22T23:04:56.130Z,7.70
2023-05-22T23:07:28.371Z,8.10
2023-05-22T23:09:59.191Z,8.15
2023-05-22T23:12:30.120Z,7.93
2023-05-22T23:15:01.061Z,7.70
2023-05-22T23:17:32.028Z,8.30
2023-05-22T23:20:05.787Z,8.23
2023-05-22T23:22:36.738Z,8.18
2023-05-22T23:25:08.333Z,8.35
2023-05-22T23:27:39.560Z,7.85
2023-05-22T23:30:13.990Z,8.32
2023-05-22T23:32:44.979Z,7.75
2023-05-22T23:35:18.749Z,7.28
2023-05-22T23:37:49.698Z,7.60
2023-05-22T23:40:20.788Z,7.53
2023-05-22T23:42:51.750Z,7.90
2023-05-22T23:45:22.812Z,8.60
2023-05-22T23:47:53.758Z,8.70
2023-05-22T23:50:27.323Z,7.70
2023-05-22T23:52:58.264Z,7.63
2023-05-22T23:55:29.200Z,7.90
2023-05-22T23:58:00.124Z,8.50
